createdAt,value
2022-11-08T00:00:42.467Z,0.00
2022-11-08T00:01:43.143Z,0.00
2022-11-08T00:02:43.865Z,0.00
2022-11-08T00:03:44.507Z,0.00
2022-11-08T00:04:45.112Z,0.00
2022-11-08T00:05:45.667Z,0.00
2022-11-08T00:06:46.248Z,0.00
2022-11-08T00:07:46.800Z,0.00
2022-11-08T00:08:47.357Z,0.00
2022-11-08T00:09:47.951Z,0.00
2022-11-08T00:10:48.530Z,0.00
2022-11-08T00:11:48.118Z,0.00
2022-11-08T00:12:49.671Z,0.00
2022-11-08T00:13:50.224Z,0.00
2022-11-08T00:14:50.803Z,0.00
2022-11-08T00:15:51.381Z,0.00
2022-11-08T00:16:51.939Z,0.00
2022-11-08T00:17:52.499Z,0.00
2022-11-08T00:18:53.055Z,0.00
2022-11-08T00:19:53.715Z,0.00
2022-11-08T00:20:54.282Z,0.00
2022-11-08T00:21:54.870Z,0.00
2022-11-08T00:22:55.425Z,0.00
2022-11-08T00:23:55.980Z,0.00
2022-11-08T00:24:56.575Z,0.00
2022-11-08T00:25:57.135Z,0.00
2022-11-08T00:26:57.693Z,0.00
2022-11-08T00:27:58.252Z,0.00
2022-11-08T00:28:58.816Z,0.00
2022-11-08T00:29:59.401Z,0.00
2022-11-08T00:30:59.970Z,0.00
2022-11-08T00:32:00.535Z,0.00
2022-11-08T00:33:01.087Z,0.00
2022-11-08T00:34:01.647Z,0.00
2022-11-08T00:35:02.244Z,0.00
2022-11-08T00:36:02.816Z,0.00
2022-11-08T00:37:03.402Z,0.00
2022-11-08T00:38:03.962Z,0.00
2022-11-08T00:39:04.526Z,0.00
2022-11-08T00:40:05.122Z,0.00
2022-11-08T00:41:05.676Z,0.00
2022-11-08T00:42:06.243Z,0.00
2022-11-08T00:43:06.804Z,0.00
2022-11-08T00:44:07.353Z,0.00
2022-11-08T00:45:07.943Z,0.00
2022-11-08T00:46:08.508Z,0.00
2022-11-08T00:47:09.068Z,0.00
2022-11-08T00:48:09.617Z,0.00
2022-11-08T00:49:10.179Z,0.00
2022-11-08T00:50:10.856Z,0.00
2022-11-08T00:51:11.422Z,0.00
2022-11-08T00:52:12.006Z,0.00
2022-11-08T00:53:12.574Z,0.00
2022-11-08T00:54:13.126Z,0.00
2022-11-08T00:55:13.782Z,0.00
2022-11-08T00:56:14.353Z,0.00
2022-11-08T00:57:14.910Z,0.00
2022-11-08T00:58:15.917Z,0.00
2022-11-08T00:59:16.233Z,0.00
2022-11-08T01:00:17.032Z,0.00
2022-11-08T01:01:17.705Z,0.00
2022-11-08T01:02:18.374Z,0.00
2022-11-08T01:03:18.966Z,0.00
2022-11-08T01:04:19.533Z,0.00
2022-11-08T01:05:20.135Z,0.00
2022-11-08T01:06:20.694Z,0.00
2022-11-08T01:07:21.269Z,0.00
2022-11-08T01:08:22.067Z,0.00
2022-11-08T01:09:22.746Z,0.00
2022-11-08T01:10:23.412Z,0.00
2022-11-08T01:11:23.983Z,0.00
2022-11-08T01:12:24.534Z,0.00
2022-11-08T01:13:25.101Z,0.00
2022-11-08T01:14:25.656Z,0.00
2022-11-08T01:15:26.335Z,0.00
2022-11-08T01:16:26.932Z,0.00
2022-11-08T01:17:27.494Z,0.00
2022-11-08T01:18:28.051Z,0.00
2022-11-08T01:19:28.606Z,0.00
2022-11-08T01:20:29.272Z,0.00
2022-11-08T01:21:30.391Z,0.00
2022-11-08T01:22:30.483Z,0.00
2022-11-08T01:23:31.036Z,0.00
2022-11-08T01:24:31.611Z,0.00
2022-11-08T01:25:32.200Z,0.00
2022-11-08T01:26:32.753Z,0.00
2022-11-08T01:27:33.307Z,0.00
2022-11-08T01:28:33.862Z,0.00
2022-11-08T01:29:34.423Z,0.00
2022-11-08T01:30:35.039Z,0.00
2022-11-08T01:31:35.589Z,0.00
2022-11-08T01:32:36.157Z,0.00
2022-11-08T01:33:36.718Z,0.00
2022-11-08T01:34:37.293Z,0.00
2022-11-08T01:35:37.920Z,0.00
2022-11-08T01:36:38.473Z,0.00
2022-11-08T01:37:39.071Z,0.00
2022-11-08T01:38:39.625Z,0.00
2022-11-08T01:39:40.178Z,0.00
2022-11-08T01:40:40.854Z,0.00
2022-11-08T01:41:41.415Z,0.00
2022-11-08T01:42:42.000Z,0.00
2022-11-08T01:43:42.577Z,0.00
2022-11-08T01:44:43.137Z,0.00
2022-11-08T01:45:43.801Z,0.00
2022-11-08T01:46:44.368Z,0.00
2022-11-08T01:47:44.938Z,0.00
2022-11-08T01:48:45.499Z,0.00
2022-11-08T01:49:46.054Z,0.00
2022-11-08T01:50:46.652Z,0.00
2022-11-08T01:51:47.201Z,0.00
2022-11-08T01:52:47.778Z,0.00
2022-11-08T01:53:48.333Z,0.00
2022-11-08T01:54:48.891Z,0.00
2022-11-08T01:55:49.561Z,0.00
2022-11-08T01:56:50.133Z,0.00
2022-11-08T01:57:50.692Z,0.00
2022-11-08T01:58:51.246Z,0.00
2022-11-08T01:59:51.832Z,0.00
2022-11-08T02:00:52.569Z,0.00
2022-11-08T02:01:53.256Z,0.00
2022-11-08T02:02:53.896Z,0.00
2022-11-08T02:03:54.464Z,0.00
2022-11-08T02:04:55.016Z,0.00
2022-11-08T02:05:55.609Z,0.00
2022-11-08T02:06:56.166Z,0.00
2022-11-08T02:07:56.760Z,0.00
2022-11-08T02:08:57.332Z,0.00
2022-11-08T02:09:57.893Z,0.00
2022-11-08T02:10:58.488Z,0.00
2022-11-08T02:11:59.043Z,0.00
2022-11-08T02:13:03.722Z,0.00
2022-11-08T02:14:00.511Z,0.00
2022-11-08T02:15:01.065Z,0.00
2022-11-08T02:16:01.721Z,0.00
2022-11-08T02:17:02.282Z,0.00
2022-11-08T02:18:02.840Z,0.00
2022-11-08T02:19:03.396Z,0.00
2022-11-08T02:20:03.982Z,0.00
2022-11-08T02:21:04.580Z,0.00
2022-11-08T02:22:05.140Z,0.00
2022-11-08T02:23:05.717Z,0.00
2022-11-08T02:24:06.273Z,0.00
2022-11-08T02:25:06.840Z,0.00
2022-11-08T02:26:07.436Z,0.00
2022-11-08T02:27:07.991Z,0.00
2022-11-08T02:28:08.547Z,0.00
2022-11-08T02:29:09.133Z,0.00
2022-11-08T02:30:09.700Z,0.00
2022-11-08T02:31:10.314Z,0.00
2022-11-08T02:32:10.862Z,0.00
2022-11-08T02:33:11.465Z,0.00
2022-11-08T02:34:12.019Z,0.00
2022-11-08T02:35:12.594Z,0.00
2022-11-08T02:36:13.179Z,0.00
2022-11-08T02:37:13.737Z,0.00
2022-11-08T02:38:14.467Z,0.00
2022-11-08T02:39:15.121Z,0.00
2022-11-08T02:40:15.689Z,0.00
2022-11-08T02:41:16.272Z,0.00
2022-11-08T02:42:16.833Z,0.00
2022-11-08T02:43:17.380Z,0.00
2022-11-08T02:44:17.946Z,0.00
2022-11-08T02:45:18.496Z,0.00
2022-11-08T02:46:19.082Z,0.00
2022-11-08T02:47:19.640Z,0.00
2022-11-08T02:48:20.704Z,0.00
2022-11-08T02:49:21.051Z,0.00
2022-11-08T02:50:21.617Z,0.00
2022-11-08T02:51:22.267Z,0.00
2022-11-08T02:52:22.826Z,0.00
2022-11-08T02:53:23.405Z,0.00
2022-11-08T02:54:23.962Z,0.00
2022-11-08T02:55:24.523Z,0.00
2022-11-08T02:56:29.523Z,0.00
2022-11-08T02:57:26.073Z,0.00
2022-11-08T02:58:26.642Z,0.00
2022-11-08T02:59:27.198Z,0.00
2022-11-08T03:00:27.761Z,0.00
2022-11-08T03:01:28.567Z,0.00
2022-11-08T03:02:29.271Z,0.00
2022-11-08T03:03:29.881Z,0.00
2022-11-08T03:04:30.462Z,0.00
2022-11-08T03:05:31.014Z,0.00
2022-11-08T03:06:31.636Z,0.00
2022-11-08T03:07:32.212Z,0.00
2022-11-08T03:08:32.792Z,0.00
2022-11-08T03:09:33.345Z,0.00
2022-11-08T03:10:33.899Z,0.00
2022-11-08T03:11:34.528Z,0.00
2022-11-08T03:12:35.083Z,0.00
2022-11-08T03:13:35.636Z,0.00
2022-11-08T03:14:36.200Z,0.00
2022-11-08T03:15:36.771Z,0.00
2022-11-08T03:16:37.363Z,0.00
2022-11-08T03:17:37.920Z,0.00
2022-11-08T03:18:38.472Z,0.00
2022-11-08T03:19:39.028Z,0.00
2022-11-08T03:20:39.587Z,0.00
2022-11-08T03:21:40.242Z,0.00
2022-11-08T03:22:40.806Z,0.00
2022-11-08T03:23:41.390Z,0.00
2022-11-08T03:24:41.950Z,0.00
2022-11-08T03:25:42.509Z,0.00
2022-11-08T03:26:43.109Z,0.00
2022-11-08T03:27:43.667Z,0.00
2022-11-08T03:28:44.225Z,0.00
2022-11-08T03:29:44.776Z,0.00
2022-11-08T03:30:45.358Z,0.00
2022-11-08T03:31:46.006Z,0.00
2022-11-08T03:32:46.565Z,0.00
2022-11-08T03:33:47.127Z,0.00
2022-11-08T03:34:47.695Z,0.00
2022-11-08T03:35:48.269Z,0.00
2022-11-08T03:36:48.865Z,0.00
2022-11-08T03:37:49.423Z,0.00
2022-11-08T03:38:50.020Z,0.00
2022-11-08T03:39:50.576Z,0.00
2022-11-08T03:40:51.136Z,0.00
2022-11-08T03:41:51.738Z,0.00
2022-11-08T03:42:52.298Z,0.00
2022-11-08T03:43:52.850Z,0.00
2022-11-08T03:44:53.407Z,0.00
2022-11-08T03:45:53.970Z,0.00
2022-11-08T03:46:54.637Z,0.00
2022-11-08T03:47:55.194Z,0.00
2022-11-08T03:48:55.746Z,0.00
2022-11-08T03:49:56.303Z,0.00
2022-11-08T03:50:56.860Z,0.00
2022-11-08T03:51:57.531Z,0.00
2022-11-08T03:52:58.087Z,0.00
2022-11-08T03:53:58.682Z,0.00
2022-11-08T03:54:59.245Z,0.00
2022-11-08T03:55:59.816Z,0.00
2022-11-08T03:57:00.516Z,0.00
2022-11-08T03:58:01.079Z,0.00
2022-11-08T03:59:01.634Z,0.00
2022-11-08T04:00:02.188Z,0.00
2022-11-08T04:01:02.868Z,0.00
2022-11-08T04:02:03.806Z,0.00
2022-11-08T04:03:04.001Z,0.00
2022-11-08T04:04:04.566Z,0.00
2022-11-08T04:05:05.128Z,0.00
2022-11-08T04:06:05.733Z,0.00
2022-11-08T04:07:06.349Z,0.00
2022-11-08T04:08:06.941Z,0.00
2022-11-08T04:09:07.523Z,0.00
2022-11-08T04:10:08.098Z,0.00
2022-11-08T04:11:08.647Z,0.00
2022-11-08T04:12:09.242Z,0.00
2022-11-08T04:13:09.795Z,0.00
2022-11-08T04:14:10.353Z,0.00
2022-11-08T04:15:10.911Z,0.00
2022-11-08T04:16:16.671Z,0.00
2022-11-08T04:17:12.505Z,0.00
2022-11-08T04:18:13.060Z,0.00
2022-11-08T04:19:13.669Z,0.00
2022-11-08T04:20:14.226Z,0.00
2022-11-08T04:21:14.791Z,0.00
2022-11-08T04:22:46.725Z,0.00
2022-11-08T04:23:15.891Z,0.00
2022-11-08T04:24:16.503Z,0.00
2022-11-08T04:25:17.071Z,0.00
2022-11-08T04:26:17.621Z,0.00
2022-11-08T04:27:18.217Z,0.00
2022-11-08T04:28:19.117Z,0.00
2022-11-08T04:29:19.394Z,0.00
2022-11-08T04:30:19.955Z,0.00
2022-11-08T04:31:20.507Z,0.00
2022-11-08T04:32:21.086Z,0.00
2022-11-08T04:33:21.639Z,0.00
2022-11-08T04:34:22.209Z,0.00
2022-11-08T04:35:22.756Z,0.00
2022-11-08T04:36:23.265Z,0.00
2022-11-08T04:37:23.850Z,0.00
2022-11-08T04:38:24.356Z,0.00
2022-11-08T04:39:24.885Z,0.00
2022-11-08T04:40:25.388Z,0.00
2022-11-08T04:41:25.888Z,0.00
2022-11-08T04:42:26.432Z,0.00
2022-11-08T04:43:27.052Z,0.00
2022-11-08T04:44:27.558Z,0.00
2022-11-08T04:45:28.059Z,0.00
2022-11-08T04:46:28.565Z,0.00
2022-11-08T04:47:29.160Z,0.00
2022-11-08T04:48:29.661Z,0.00
2022-11-08T04:49:30.158Z,0.00
2022-11-08T04:50:30.659Z,0.00
2022-11-08T04:51:31.157Z,0.00
2022-11-08T04:52:31.698Z,0.00
2022-11-08T04:53:32.200Z,0.00
2022-11-08T04:54:32.724Z,0.00
2022-11-08T04:55:33.241Z,5.62
2022-11-08T04:56:33.756Z,5.62
2022-11-08T04:57:34.339Z,5.62
2022-11-08T04:58:34.841Z,5.62
2022-11-08T04:59:35.348Z,5.62
2022-11-08T05:00:35.858Z,5.62
2022-11-08T05:01:36.536Z,5.62
2022-11-08T05:02:37.377Z,11.25
2022-11-08T05:03:37.979Z,11.25
2022-11-08T05:04:38.485Z,11.25
2022-11-08T05:05:38.984Z,11.25
2022-11-08T05:06:39.490Z,16.88
2022-11-08T05:07:40.114Z,16.88
2022-11-08T05:08:40.630Z,16.88
2022-11-08T05:09:41.161Z,16.88
2022-11-08T05:10:41.655Z,22.50
2022-11-08T05:11:42.156Z,22.50
2022-11-08T05:12:42.698Z,22.50
2022-11-08T05:13:43.200Z,28.12
2022-11-08T05:14:43.737Z,28.12
2022-11-08T05:15:44.240Z,28.12
2022-11-08T05:16:44.734Z,28.12
2022-11-08T05:17:45.905Z,28.12
2022-11-08T05:18:45.913Z,28.12
2022-11-08T05:19:46.417Z,28.12
2022-11-08T05:20:46.924Z,28.12
2022-11-08T05:21:47.421Z,33.75
2022-11-08T05:22:47.962Z,33.75
2022-11-08T05:23:48.469Z,33.75
2022-11-08T05:24:48.993Z,39.38
2022-11-08T05:25:49.496Z,39.38
2022-11-08T05:26:49.999Z,45.00
2022-11-08T05:27:50.551Z,45.00
2022-11-08T05:28:51.057Z,50.62
2022-11-08T05:29:51.567Z,56.25
2022-11-08T05:30:52.071Z,56.25
2022-11-08T05:31:52.578Z,61.88
2022-11-08T05:32:53.162Z,61.88
2022-11-08T05:33:53.670Z,61.88
2022-11-08T05:34:54.187Z,61.88
2022-11-08T05:35:54.697Z,67.50
2022-11-08T05:36:55.197Z,73.12
2022-11-08T05:37:55.742Z,73.12
2022-11-08T05:38:56.238Z,78.75
2022-11-08T05:39:56.766Z,78.75
2022-11-08T05:40:57.265Z,84.38
2022-11-08T05:41:58.208Z,84.38
2022-11-08T05:42:58.731Z,84.38
2022-11-08T05:43:59.236Z,90.00
2022-11-08T05:45:01.197Z,90.00
2022-11-08T05:46:00.702Z,84.38
2022-11-08T05:47:01.315Z,84.38
2022-11-08T05:48:01.997Z,84.38
2022-11-08T05:49:02.573Z,84.38
2022-11-08T05:50:03.074Z,90.00
2022-11-08T05:51:03.583Z,95.62
2022-11-08T05:52:04.230Z,101.25
2022-11-08T05:53:08.138Z,101.25
2022-11-08T05:54:04.554Z,106.88
2022-11-08T05:55:06.090Z,112.50
2022-11-08T05:56:06.886Z,118.12
2022-11-08T05:57:26.582Z,129.38
2022-11-08T05:58:08.212Z,129.38
2022-11-08T05:59:12.979Z,135.00
2022-11-08T06:00:09.886Z,140.62
2022-11-08T06:01:11.069Z,140.62
2022-11-08T06:02:11.937Z,146.25
2022-11-08T06:03:13.741Z,135.00
2022-11-08T06:04:12.825Z,157.50
2022-11-08T06:05:16.259Z,151.88
2022-11-08T06:06:13.930Z,135.00
2022-11-08T06:07:14.441Z,129.38
2022-11-08T06:08:15.001Z,180.00
2022-11-08T06:09:15.509Z,213.75
2022-11-08T06:10:16.062Z,258.75
2022-11-08T06:11:16.952Z,303.75
2022-11-08T06:12:17.210Z,421.88
2022-11-08T06:13:17.976Z,506.25
2022-11-08T06:14:28.071Z,528.75
2022-11-08T06:15:19.029Z,556.88
2022-11-08T06:16:19.532Z,562.50
2022-11-08T06:17:20.107Z,562.50
2022-11-08T06:18:20.764Z,579.38
2022-11-08T06:19:21.264Z,618.75
2022-11-08T06:20:21.770Z,641.25
2022-11-08T06:21:25.816Z,663.75
2022-11-08T06:22:22.843Z,675.00
2022-11-08T06:23:26.180Z,691.88
2022-11-08T06:24:24.172Z,714.38
2022-11-08T06:25:24.718Z,742.50
2022-11-08T06:26:25.248Z,753.75
2022-11-08T06:27:25.758Z,765.00
2022-11-08T06:28:26.549Z,787.50
2022-11-08T06:29:27.241Z,787.50
2022-11-08T06:30:28.734Z,720.00
2022-11-08T06:31:31.339Z,781.88
2022-11-08T06:32:38.182Z,810.00
2022-11-08T06:33:34.187Z,815.62
2022-11-08T06:34:39.216Z,832.50
2022-11-08T06:35:31.262Z,860.62
2022-11-08T06:36:31.921Z,883.12
2022-11-08T06:37:41.741Z,900.00
2022-11-08T06:38:34.198Z,945.00
2022-11-08T06:39:34.139Z,984.38
2022-11-08T06:40:35.406Z,967.50
2022-11-08T06:41:35.010Z,877.50
2022-11-08T06:42:36.489Z,804.38
2022-11-08T06:43:36.580Z,877.50
2022-11-08T06:44:37.643Z,928.12
2022-11-08T06:45:41.884Z,697.50
2022-11-08T06:46:38.432Z,967.50
2022-11-08T06:47:38.931Z,911.25
2022-11-08T06:48:39.464Z,658.12
2022-11-08T06:49:39.972Z,922.50
2022-11-08T06:50:58.646Z,303.75
2022-11-08T06:51:41.103Z,781.88
2022-11-08T06:52:41.605Z,343.12
2022-11-08T06:53:42.162Z,247.50
2022-11-08T06:54:43.457Z,950.62
2022-11-08T06:55:44.082Z,1220.62
2022-11-08T06:56:44.158Z,1175.62
2022-11-08T06:57:45.070Z,556.88
2022-11-08T06:59:12.984Z,270.00
2022-11-08T06:59:51.781Z,945.00
2022-11-08T07:00:47.680Z,1288.12
2022-11-08T07:01:48.737Z,1293.75
2022-11-08T07:02:51.216Z,275.62
2022-11-08T07:03:49.854Z,247.50
2022-11-08T07:04:52.193Z,933.75
2022-11-08T07:06:00.284Z,1254.38
2022-11-08T07:07:06.188Z,247.50
2022-11-08T07:08:27.391Z,253.12
2022-11-08T07:08:54.533Z,219.38
2022-11-08T07:09:53.533Z,208.12
2022-11-08T07:10:54.054Z,208.12
2022-11-08T07:13:43.217Z,1451.25
2022-11-08T07:14:44.815Z,1535.62
2022-11-08T07:15:45.318Z,1108.12
2022-11-08T07:16:45.820Z,320.62
2022-11-08T07:17:46.321Z,315.00
2022-11-08T07:18:46.947Z,196.88
2022-11-08T07:19:47.782Z,230.62
2022-11-08T07:20:48.514Z,371.25
2022-11-08T07:21:49.023Z,1552.50
2022-11-08T07:22:50.239Z,1091.25
2022-11-08T07:23:50.358Z,1704.38
2022-11-08T07:24:50.946Z,1777.50
2022-11-08T07:25:55.175Z,1350.00
2022-11-08T07:26:52.345Z,286.88
2022-11-08T07:27:53.264Z,348.75
2022-11-08T07:29:01.980Z,315.00
2022-11-08T07:30:06.414Z,298.12
2022-11-08T07:31:06.038Z,253.12
2022-11-08T07:31:56.318Z,253.12
2022-11-08T07:32:56.737Z,1473.75
2022-11-08T07:34:00.936Z,1839.38
2022-11-08T07:35:05.645Z,1816.88
2022-11-08T07:35:59.833Z,1811.25
2022-11-08T07:42:34.310Z,1743.75
2022-11-08T07:43:29.831Z,1777.50
2022-11-08T07:44:30.026Z,1833.75
2022-11-08T07:45:29.733Z,1468.12
2022-11-08T07:46:30.306Z,1603.12
2022-11-08T07:47:30.944Z,630.00
2022-11-08T07:48:31.486Z,421.88
2022-11-08T07:49:32.007Z,759.38
2022-11-08T07:50:32.606Z,922.50
2022-11-08T07:51:33.197Z,883.12
2022-11-08T07:52:33.699Z,815.62
2022-11-08T07:53:34.211Z,798.75
2022-11-08T07:54:34.833Z,781.88
2022-11-08T07:55:36.060Z,455.62
2022-11-08T07:56:36.097Z,770.62
2022-11-08T07:57:36.663Z,703.12
2022-11-08T07:58:37.181Z,714.38
2022-11-08T07:59:37.682Z,669.38
2022-11-08T08:00:38.483Z,585.00
2022-11-08T08:01:39.189Z,669.38
2022-11-08T08:02:41.346Z,658.12
2022-11-08T08:03:42.274Z,663.75
2022-11-08T08:05:14.173Z,646.88
2022-11-08T08:05:42.585Z,421.88
2022-11-08T08:06:42.675Z,506.25
2022-11-08T08:07:43.199Z,270.00
2022-11-08T08:08:57.731Z,281.25
2022-11-08T08:09:45.098Z,298.12
2022-11-08T08:10:45.126Z,360.00
2022-11-08T08:11:45.733Z,596.25
2022-11-08T08:12:46.380Z,472.50
2022-11-08T08:13:47.240Z,388.12
2022-11-08T08:14:47.853Z,545.62
2022-11-08T08:15:49.006Z,534.38
2022-11-08T08:16:48.838Z,528.75
2022-11-08T08:17:49.353Z,523.12
2022-11-08T08:18:55.081Z,506.25
2022-11-08T08:19:50.779Z,506.25
2022-11-08T08:20:56.325Z,506.25
2022-11-08T08:21:52.439Z,540.00
2022-11-08T08:22:53.492Z,495.00
2022-11-08T08:23:53.549Z,478.12
2022-11-08T08:24:54.051Z,360.00
2022-11-08T08:25:59.354Z,331.88
2022-11-08T08:26:55.376Z,528.75
2022-11-08T08:28:08.592Z,405.00
2022-11-08T08:28:56.619Z,568.12
2022-11-08T08:30:01.467Z,562.50
2022-11-08T08:30:57.969Z,562.50
2022-11-08T08:31:59.622Z,562.50
2022-11-08T08:33:26.397Z,585.00
2022-11-08T08:33:59.986Z,590.62
2022-11-08T08:35:00.564Z,601.88
2022-11-08T08:36:01.529Z,613.12
2022-11-08T08:37:02.156Z,613.12
2022-11-08T08:38:02.659Z,663.75
2022-11-08T08:39:03.179Z,613.12
2022-11-08T08:40:03.677Z,618.75
2022-11-08T08:41:04.185Z,360.00
2022-11-08T08:42:04.726Z,326.25
2022-11-08T08:43:05.834Z,523.12
2022-11-08T08:44:05.779Z,348.75
2022-11-08T08:45:09.545Z,348.75
2022-11-08T08:46:07.150Z,354.38
2022-11-08T08:47:08.724Z,382.50
2022-11-08T08:48:08.231Z,343.12
2022-11-08T08:49:08.928Z,354.38
2022-11-08T08:50:13.135Z,382.50
2022-11-08T08:51:10.333Z,1068.75
2022-11-08T08:52:12.202Z,1006.88
2022-11-08T08:53:11.729Z,1310.62
2022-11-08T08:54:12.291Z,1350.00
2022-11-08T08:55:12.799Z,1456.88
2022-11-08T08:56:13.315Z,1546.88
2022-11-08T08:57:13.852Z,1575.00
2022-11-08T08:58:14.416Z,1586.25
2022-11-08T09:02:19.034Z,1580.62
2022-11-08T09:03:18.469Z,354.38
2022-11-08T09:04:18.730Z,292.50
2022-11-08T09:05:19.234Z,270.00
2022-11-08T09:06:19.743Z,258.75
2022-11-08T09:07:20.488Z,264.38
2022-11-08T09:08:21.213Z,292.50
2022-11-08T09:09:26.531Z,545.62
2022-11-08T09:10:22.261Z,1209.38
2022-11-08T09:11:22.797Z,1878.75
2022-11-08T09:12:23.404Z,1895.62
2022-11-08T09:13:23.910Z,1968.75
2022-11-08T09:14:24.437Z,1935.00
2022-11-08T09:15:24.935Z,1890.00
2022-11-08T09:16:25.709Z,1704.38
2022-11-08T09:17:27.985Z,1473.75
2022-11-08T09:18:35.378Z,990.00
2022-11-08T09:19:27.110Z,1856.25
2022-11-08T09:20:27.627Z,1890.00
2022-11-08T09:21:28.179Z,1890.00
2022-11-08T09:22:32.258Z,1890.00
2022-11-08T09:23:29.265Z,1946.25
2022-11-08T09:24:29.770Z,922.50
2022-11-08T09:25:33.633Z,1980.00
2022-11-08T09:26:32.053Z,2002.50
2022-11-08T09:27:32.049Z,1963.12
2022-11-08T09:28:32.984Z,2025.00
2022-11-08T09:29:35.667Z,2008.12
2022-11-08T09:30:34.082Z,2013.75
2022-11-08T09:31:34.611Z,2025.00
2022-11-08T09:32:59.075Z,2013.75
2022-11-08T09:33:36.035Z,2008.12
2022-11-08T09:34:36.682Z,2002.50
2022-11-08T09:35:37.260Z,2041.88
2022-11-08T09:36:37.788Z,2008.12
2022-11-08T09:37:38.290Z,1996.88
2022-11-08T09:38:38.960Z,1974.38
2022-11-08T09:39:39.547Z,1940.62
2022-11-08T09:40:40.787Z,1923.75
2022-11-08T09:41:40.851Z,1918.12
2022-11-08T09:42:41.352Z,1890.00
2022-11-08T09:43:42.560Z,1890.00
2022-11-08T09:44:42.744Z,1873.12
2022-11-08T09:45:43.250Z,1845.00
2022-11-08T09:46:46.350Z,1839.38
2022-11-08T09:47:47.770Z,1822.50
2022-11-08T09:48:45.511Z,1816.88
2022-11-08T09:49:46.782Z,1822.50
2022-11-08T09:50:46.933Z,1783.12
2022-11-08T09:51:47.485Z,1653.75
2022-11-08T09:52:48.060Z,1805.62
2022-11-08T09:53:48.589Z,1771.88
2022-11-08T09:54:49.464Z,1783.12
2022-11-08T09:55:50.033Z,1783.12
2022-11-08T09:56:50.557Z,1766.25
2022-11-08T09:57:51.081Z,1794.38
2022-11-08T09:58:51.612Z,1749.38
2022-11-08T09:59:52.138Z,1513.12
2022-11-08T10:00:52.642Z,1676.25
2022-11-08T10:01:53.777Z,1777.50
2022-11-08T10:02:54.200Z,545.62
2022-11-08T10:04:09.926Z,528.75
2022-11-08T10:04:55.840Z,753.75
2022-11-08T10:05:55.840Z,961.88
2022-11-08T10:07:01.050Z,556.88
2022-11-08T10:07:57.264Z,1732.50
2022-11-08T10:08:57.868Z,1603.12
2022-11-08T10:09:58.375Z,1530.00
2022-11-08T10:11:06.707Z,1833.75
2022-11-08T10:11:59.691Z,1878.75
2022-11-08T10:13:00.200Z,1873.12
2022-11-08T10:14:00.868Z,1861.88
2022-11-08T10:15:01.507Z,1867.50
2022-11-08T10:16:02.027Z,1867.50
2022-11-08T10:17:02.542Z,1867.50
2022-11-08T10:18:03.043Z,1845.00
2022-11-08T10:19:03.655Z,1867.50
2022-11-08T10:20:11.846Z,1878.75
2022-11-08T10:21:08.199Z,1884.38
2022-11-08T10:22:05.408Z,1873.12
2022-11-08T10:23:06.250Z,1873.12
2022-11-08T10:24:06.780Z,1884.38
2022-11-08T10:25:07.303Z,1878.75
2022-11-08T10:26:07.825Z,1878.75
2022-11-08T10:27:08.337Z,1906.88
2022-11-08T10:28:08.859Z,1845.00
2022-11-08T10:29:10.662Z,1726.88
2022-11-08T10:30:10.216Z,1901.25
2022-11-08T10:31:10.728Z,1878.75
2022-11-08T10:32:11.227Z,1642.50
2022-11-08T10:33:11.874Z,1878.75
2022-11-08T10:34:12.425Z,1867.50
2022-11-08T10:35:12.933Z,1873.12
2022-11-08T10:36:13.435Z,1856.25
2022-11-08T10:37:13.996Z,1856.25
2022-11-08T10:38:14.510Z,1850.62
2022-11-08T10:39:15.791Z,1833.75
2022-11-08T10:40:15.852Z,1833.75
2022-11-08T10:41:16.353Z,1828.12
2022-11-08T10:42:16.853Z,1833.75
2022-11-08T10:43:17.363Z,1805.62
2022-11-08T10:44:17.926Z,1845.00
2022-11-08T10:45:18.455Z,1839.38
2022-11-08T10:46:18.999Z,1828.12
2022-11-08T10:47:20.333Z,1805.62
2022-11-08T10:48:20.804Z,1811.25
2022-11-08T10:49:21.061Z,1839.38
2022-11-08T10:50:21.616Z,1856.25
2022-11-08T10:51:22.128Z,1822.50
2022-11-08T10:52:22.639Z,1805.62
2022-11-08T10:53:23.173Z,1794.38
2022-11-08T10:54:23.769Z,1805.62
2022-11-08T10:55:24.379Z,1794.38
2022-11-08T10:56:24.935Z,1783.12
2022-11-08T10:57:25.503Z,1771.88
2022-11-08T10:58:26.471Z,1783.12
2022-11-08T10:59:27.440Z,1794.38
2022-11-08T11:00:27.986Z,1800.00
2022-11-08T11:01:28.758Z,1800.00
2022-11-08T11:02:32.718Z,1788.75
2022-11-08T11:03:30.212Z,1743.75
2022-11-08T11:04:30.856Z,1743.75
2022-11-08T11:05:31.383Z,1766.25
2022-11-08T11:06:31.962Z,1771.88
2022-11-08T11:07:32.517Z,1738.12
2022-11-08T11:08:33.039Z,1710.00
2022-11-08T11:09:33.629Z,1715.62
2022-11-08T11:10:34.217Z,1704.38
2022-11-08T11:11:34.837Z,1681.88
2022-11-08T11:12:37.708Z,1653.75
2022-11-08T11:13:36.910Z,1631.25
2022-11-08T11:14:37.572Z,1625.62
2022-11-08T11:15:37.646Z,1631.25
2022-11-08T11:16:38.351Z,1636.88
2022-11-08T11:17:40.224Z,1625.62
2022-11-08T11:18:40.648Z,1597.50
2022-11-08T11:19:55.529Z,1524.38
2022-11-08T11:20:44.177Z,315.00
2022-11-08T11:21:42.173Z,326.25
2022-11-08T11:22:42.700Z,1563.75
2022-11-08T11:23:43.195Z,1530.00
2022-11-08T11:24:43.707Z,1327.50
2022-11-08T11:25:44.238Z,1541.25
2022-11-08T11:26:44.747Z,1541.25
2022-11-08T11:27:46.015Z,1558.12
2022-11-08T11:28:46.123Z,1552.50
2022-11-08T11:29:46.777Z,1535.62
2022-11-08T11:30:47.378Z,1400.62
2022-11-08T11:31:47.987Z,466.88
2022-11-08T11:32:48.660Z,1012.50
2022-11-08T11:33:49.174Z,1524.38
2022-11-08T11:34:49.718Z,1445.62
2022-11-08T11:35:50.221Z,1423.12
2022-11-08T11:36:50.726Z,1434.38
2022-11-08T11:37:51.222Z,1417.50
2022-11-08T11:38:51.729Z,1417.50
2022-11-08T11:39:52.260Z,1327.50
2022-11-08T11:40:52.827Z,1338.75
2022-11-08T11:41:53.366Z,1350.00
2022-11-08T11:42:53.891Z,1350.00
2022-11-08T11:43:54.396Z,1321.88
2022-11-08T11:44:54.934Z,1282.50
2022-11-08T11:45:55.479Z,315.00
2022-11-08T11:46:57.265Z,343.12
2022-11-08T11:47:56.976Z,1333.12
2022-11-08T11:48:57.527Z,1350.00
2022-11-08T11:49:58.107Z,1327.50
2022-11-08T11:50:58.688Z,1344.38
2022-11-08T11:51:59.242Z,1282.50
2022-11-08T11:52:59.758Z,1096.88
2022-11-08T11:54:00.325Z,534.38
2022-11-08T11:55:01.874Z,416.25
2022-11-08T11:56:01.368Z,1231.88
2022-11-08T11:57:01.871Z,1293.75
2022-11-08T11:58:02.384Z,1299.38
2022-11-08T11:59:02.919Z,1260.00
2022-11-08T12:00:03.459Z,1248.75
2022-11-08T12:01:04.209Z,1186.88
2022-11-08T12:02:04.766Z,348.75
2022-11-08T12:03:05.420Z,365.62
2022-11-08T12:04:05.921Z,331.88
2022-11-08T12:05:06.500Z,303.75
2022-11-08T12:06:07.009Z,275.62
2022-11-08T12:07:07.579Z,303.75
2022-11-08T12:08:08.115Z,1153.12
2022-11-08T12:09:08.617Z,1141.88
2022-11-08T12:10:09.212Z,1141.88
2022-11-08T12:11:09.729Z,1141.88
2022-11-08T12:12:10.234Z,1136.25
2022-11-08T12:13:10.738Z,1125.00
2022-11-08T12:14:11.240Z,1102.50
2022-11-08T12:15:11.789Z,1125.00
2022-11-08T12:16:12.330Z,393.75
2022-11-08T12:17:12.836Z,1125.00
2022-11-08T12:18:21.609Z,1091.25
2022-11-08T12:19:14.211Z,1074.38
2022-11-08T12:20:14.772Z,1096.88
2022-11-08T12:21:15.331Z,1063.12
2022-11-08T12:22:15.937Z,1046.25
2022-11-08T12:23:16.575Z,1046.25
2022-11-08T12:24:17.075Z,1068.75
2022-11-08T12:25:17.608Z,1080.00
2022-11-08T12:26:19.585Z,1063.12
2022-11-08T12:27:19.089Z,1074.38
2022-11-08T12:28:20.029Z,1074.38
2022-11-08T12:29:20.298Z,1068.75
2022-11-08T12:30:22.530Z,1040.62
2022-11-08T12:31:21.560Z,1057.50
2022-11-08T12:32:22.075Z,1068.75
2022-11-08T12:33:22.743Z,1096.88
2022-11-08T12:34:23.159Z,1018.12
2022-11-08T12:35:23.699Z,281.25
2022-11-08T12:36:24.209Z,270.00
2022-11-08T12:37:27.525Z,275.62
2022-11-08T12:38:25.521Z,472.50
2022-11-08T12:39:26.026Z,1080.00
2022-11-08T12:40:26.571Z,714.38
2022-11-08T12:41:27.103Z,1046.25
2022-11-08T12:42:27.603Z,1068.75
2022-11-08T12:43:28.109Z,945.00
2022-11-08T12:44:28.616Z,1001.25
2022-11-08T12:45:29.174Z,478.12
2022-11-08T12:46:29.706Z,275.62
2022-11-08T12:47:30.210Z,264.38
2022-11-08T12:48:30.738Z,258.75
2022-11-08T12:49:31.249Z,286.88
2022-11-08T12:50:31.797Z,1057.50
2022-11-08T12:51:34.211Z,945.00
2022-11-08T12:52:33.210Z,427.50
2022-11-08T12:53:33.706Z,1023.75
2022-11-08T12:54:34.209Z,1046.25
2022-11-08T12:55:34.749Z,1029.38
2022-11-08T12:56:35.253Z,933.75
2022-11-08T12:57:35.753Z,236.25
2022-11-08T12:58:36.277Z,230.62
2022-11-08T12:59:36.785Z,258.75